createdAt,value
2018-12-08T00:02:00.964Z,97278.84
2018-12-08T00:07:30.465Z,97264.41
2018-12-08T00:10:00.818Z,97259.42
2018-12-08T00:12:48.747Z,97251.53
2018-12-08T00:15:39.430Z,97257.37
2018-12-08T00:18:29.951Z,97244.66
2018-12-08T00:21:17.524Z,97228.25
2018-12-08T00:23:56.541Z,97222.36
2018-12-08T00:26:38.766Z,97228.11
2018-12-08T00:32:30.543Z,97224.21
2018-12-08T00:41:12.443Z,97197.04
2018-12-08T00:44:11.291Z,97216.72
2018-12-08T00:49:48.544Z,97197.72
2018-12-08T00:52:33.546Z,97162.98
2018-12-08T00:55:11.042Z,97152.83
2018-12-08T01:00:51.240Z,97155.77
2018-12-08T01:03:35.930Z,97151.42
2018-12-08T01:06:08.200Z,97152.86
2018-12-08T01:08:38.443Z,97139.98
2018-12-08T01:11:09.744Z,97110.56
2018-12-08T01:13:39.981Z,97117.00
2018-12-08T01:16:09.889Z,97106.66
2018-12-08T01:18:40.489Z,97085.16
2018-12-08T01:23:49.168Z,97091.19
2018-12-08T01:26:21.243Z,97082.13
2018-12-08T01:28:51.688Z,97077.04
2018-12-08T01:31:22.499Z,97083.32
2018-12-08T01:33:52.854Z,97055.58
2018-12-08T01:36:27.150Z,97021.13
2018-12-08T01:38:59.106Z,97010.95
2018-12-08T01:41:33.450Z,97028.77
2018-12-08T01:44:05.953Z,97008.86
2018-12-08T01:46:40.652Z,96997.27
2018-12-08T01:49:11.179Z,97006.48
2018-12-08T01:51:50.367Z,97028.86
2018-12-08T01:54:23.572Z,96995.12
2018-12-08T01:57:04.047Z,96980.54
2018-12-08T01:59:37.009Z,96974.35
2018-12-08T02:02:06.957Z,96987.83
2018-12-08T02:04:43.750Z,96990.03
2018-12-08T02:07:30.949Z,96998.62
2018-12-08T02:10:01.531Z,97012.10
2018-12-08T02:12:44.414Z,97011.02
2018-12-08T02:15:14.974Z,97000.50
2018-12-08T02:17:55.354Z,97013.74
2018-12-08T02:20:26.126Z,97015.11
2018-12-08T02:22:56.241Z,97017.83
2018-12-08T02:25:27.059Z,97022.12
2018-12-08T02:27:57.240Z,97016.97
2018-12-08T02:30:28.128Z,97004.30
2018-12-08T02:33:00.448Z,97008.30
2018-12-08T02:35:30.961Z,97007.53
2018-12-08T02:38:00.660Z,97006.77
2018-12-08T02:40:31.151Z,97013.48
2018-12-08T02:43:02.218Z,97000.02
2018-12-08T02:45:31.852Z,97003.52
2018-12-08T02:48:01.560Z,97000.52
2018-12-08T02:50:32.186Z,96994.05
2018-12-08T02:53:02.674Z,97000.23
2018-12-08T02:55:32.951Z,96998.41
2018-12-08T02:58:02.542Z,96993.52
2018-12-08T03:00:32.232Z,96996.77
2018-12-08T03:03:12.151Z,96988.92
2018-12-08T03:05:43.074Z,96997.56
2018-12-08T03:08:13.127Z,96990.84
2018-12-08T03:10:42.996Z,96988.67
2018-12-08T03:13:13.370Z,96983.27
2018-12-08T03:15:43.656Z,96972.20
2018-12-08T03:18:13.188Z,96950.88
2018-12-08T03:20:42.925Z,96969.45
2018-12-08T03:23:13.163Z,96964.59
2018-12-08T03:25:43.159Z,96964.56
2018-12-08T03:28:13.520Z,96969.11
2018-12-08T03:30:45.431Z,96975.62
2018-12-08T03:33:15.488Z,96968.32
2018-12-08T03:35:45.926Z,96954.84
2018-12-08T03:38:16.261Z,96950.77
2018-12-08T03:40:50.410Z,96954.05
2018-12-08T03:43:20.613Z,96906.55
2018-12-08T03:45:50.703Z,96918.41
2018-12-08T03:51:48.651Z,96937.22
2018-12-08T03:54:19.806Z,96932.86
2018-12-08T03:56:56.554Z,96931.23
2018-12-08T03:59:28.578Z,96939.81
2018-12-08T04:01:58.839Z,96938.17
2018-12-08T04:04:30.977Z,96933.55
2018-12-08T04:07:08.885Z,96937.30
2018-12-08T04:09:40.906Z,96945.67
2018-12-08T04:12:20.348Z,96942.16
2018-12-08T04:14:54.668Z,96940.84
2018-12-08T04:17:31.846Z,96934.66
2018-12-08T04:20:03.443Z,96926.88
2018-12-08T04:22:44.153Z,96931.20
2018-12-08T04:25:16.785Z,96916.67
2018-12-08T04:27:47.283Z,96919.95
2018-12-08T04:30:16.828Z,96912.70
2018-12-08T04:32:54.254Z,96895.21
2018-12-08T04:35:24.370Z,96908.06
2018-12-08T04:38:00.852Z,96895.94
2018-12-08T04:40:33.960Z,96884.63
2018-12-08T04:43:05.150Z,96891.34
2018-12-08T04:45:34.781Z,96881.09
2018-12-08T04:48:05.328Z,96897.57
2018-12-08T04:50:36.093Z,96874.67
2018-12-08T04:53:10.971Z,96870.91
2018-12-08T04:55:41.667Z,96866.63
2018-12-08T04:58:12.297Z,96871.47
2018-12-08T05:00:42.445Z,96874.73
2018-12-08T05:03:19.497Z,96862.33
2018-12-08T05:05:50.813Z,96867.73
2018-12-08T05:08:20.963Z,96867.20
2018-12-08T05:10:50.695Z,96865.30
2018-12-08T05:13:20.350Z,96864.51
2018-12-08T05:15:51.258Z,96864.48
2018-12-08T05:18:23.007Z,96858.83
2018-12-08T05:20:53.120Z,96858.83
2018-12-08T05:23:23.883Z,96863.95
2018-12-08T05:25:53.704Z,96854.23
2018-12-08T05:28:24.006Z,96867.72
2018-12-08T05:30:53.775Z,96858.23
2018-12-08T05:33:23.506Z,96859.58
2018-12-08T05:35:54.533Z,96867.64
2018-12-08T05:38:24.509Z,96856.59
2018-12-08T05:40:54.380Z,96864.05
2018-12-08T05:43:25.061Z,96873.44
2018-12-08T05:45:54.853Z,96875.37
2018-12-08T05:48:24.876Z,96876.48
2018-12-08T05:50:55.100Z,96886.72
2018-12-08T05:53:24.833Z,96884.61
2018-12-08T05:55:55.812Z,96884.67
2018-12-08T05:58:25.443Z,96884.97
2018-12-08T06:00:55.236Z,96893.10
2018-12-08T06:03:32.358Z,96896.60
2018-12-08T06:06:04.078Z,96903.09
2018-12-08T06:08:35.814Z,96902.55
2018-12-08T06:11:05.869Z,96915.55
2018-12-08T06:13:36.747Z,96918.44
2018-12-08T06:16:06.596Z,96931.55
2018-12-08T06:18:36.408Z,96937.91
2018-12-08T06:21:06.269Z,96930.04
2018-12-08T06:23:37.166Z,96937.23
2018-12-08T06:26:09.077Z,96932.55
2018-12-08T06:28:39.129Z,96935.73
2018-12-08T06:31:09.124Z,96925.59
2018-12-08T06:33:39.530Z,96918.69
2018-12-08T06:36:09.287Z,96928.73
2018-12-08T06:38:40.174Z,96928.13
2018-12-08T06:41:10.271Z,96938.19
2018-12-08T06:43:41.029Z,96934.90
2018-12-08T06:46:11.462Z,96942.02
2018-12-08T06:48:41.849Z,96944.61
2018-12-08T06:51:11.608Z,96952.87
2018-12-08T06:53:41.549Z,96949.31
2018-12-08T06:56:11.486Z,96940.19
2018-12-08T06:58:41.117Z,96933.04
2018-12-08T07:01:12.098Z,96923.16
2018-12-08T07:03:47.761Z,96913.20
2018-12-08T07:06:19.523Z,96911.33
2018-12-08T07:08:50.215Z,96910.22
2018-12-08T07:11:21.009Z,96916.16
2018-12-08T07:13:50.944Z,96917.62
2018-12-08T07:16:24.099Z,96927.31
2018-12-08T07:18:57.659Z,96918.57
2018-12-08T07:21:32.962Z,96920.73
2018-12-08T07:24:03.726Z,96913.22
2018-12-08T07:26:35.356Z,96918.02
2018-12-08T07:29:05.917Z,96920.38
2018-12-08T07:34:52.812Z,96929.98
2018-12-08T07:37:28.162Z,96924.63
2018-12-08T07:40:01.139Z,96917.61
2018-12-08T07:42:42.457Z,96917.88
2018-12-08T07:45:15.717Z,96934.62
2018-12-08T07:47:55.257Z,96936.27
2018-12-08T07:50:28.377Z,96945.95
2018-12-08T07:52:58.966Z,96958.37
2018-12-08T07:55:30.336Z,96962.38
2018-12-08T07:58:07.467Z,96952.11
2018-12-08T08:00:39.342Z,96962.34
2018-12-08T08:09:51.866Z,97002.05
2018-12-08T08:12:22.223Z,97006.86
2018-12-08T08:15:00.061Z,97028.65
2018-12-08T08:20:17.287Z,97025.67
2018-12-08T08:22:53.811Z,97026.14
2018-12-08T08:25:23.556Z,97010.30
2018-12-08T08:28:05.220Z,97009.38
2018-12-08T08:30:35.541Z,97032.14
2018-12-08T08:33:06.166Z,97028.55
2018-12-08T08:35:36.678Z,97026.31
2018-12-08T08:38:06.739Z,97031.28
2018-12-08T08:40:37.103Z,97033.41
2018-12-08T08:43:09.376Z,97035.84
2018-12-08T08:45:39.441Z,97036.20
2018-12-08T08:48:10.951Z,97041.38
2018-12-08T08:50:40.786Z,97048.38
2018-12-08T08:53:10.964Z,97060.02
2018-12-08T08:55:41.693Z,97061.81
2018-12-08T08:58:12.770Z,97075.16
2018-12-08T09:00:42.988Z,97073.09
2018-12-08T09:03:26.084Z,97087.60
2018-12-08T09:05:56.351Z,97090.27
2018-12-08T09:08:26.341Z,97092.69
2018-12-08T09:10:57.956Z,97095.34
2018-12-08T09:13:27.953Z,97104.50
2018-12-08T09:15:58.092Z,97109.61
2018-12-08T09:18:31.160Z,97108.52
2018-12-08T09:21:01.473Z,97109.86
2018-12-08T09:23:31.267Z,97105.42
2018-12-08T09:26:00.966Z,97097.95
2018-12-08T09:28:30.707Z,97100.41
2018-12-08T09:31:00.636Z,97113.80
2018-12-08T09:33:30.745Z,97116.19
2018-12-08T09:36:00.449Z,97110.19
2018-12-08T09:38:30.326Z,97113.77
2018-12-08T09:41:00.098Z,97123.50
2018-12-08T09:43:30.609Z,97129.61
2018-12-08T09:46:00.286Z,97128.75
2018-12-08T09:48:30.486Z,97122.67
2018-12-08T09:51:01.018Z,97124.91
2018-12-08T09:53:31.608Z,97127.83
2018-12-08T09:56:01.331Z,97127.30
2018-12-08T09:58:31.317Z,97120.15
2018-12-08T10:01:01.324Z,97127.84
2018-12-08T10:03:40.866Z,97115.98
2018-12-08T10:06:13.884Z,97111.73
2018-12-08T10:08:44.891Z,97110.47
2018-12-08T10:11:15.852Z,97105.43
2018-12-08T10:13:46.741Z,97104.98
2018-12-08T10:16:21.877Z,97103.41
2018-12-08T10:18:52.267Z,97100.88
2018-12-08T10:21:22.235Z,97104.92
2018-12-08T10:23:53.101Z,97102.05
2018-12-08T10:29:38.793Z,97097.26
2018-12-08T10:32:20.465Z,97094.95
2018-12-08T10:34:53.480Z,97097.95
2018-12-08T10:37:34.262Z,97107.52
2018-12-08T10:40:09.405Z,97103.98
2018-12-08T10:42:49.909Z,97106.65
2018-12-08T10:45:22.385Z,97107.67
2018-12-08T10:47:52.365Z,97100.92
2018-12-08T10:50:22.319Z,97091.42
2018-12-08T10:52:55.462Z,97094.24
2018-12-08T10:55:25.417Z,97093.52
2018-12-08T10:58:06.321Z,97090.67
2018-12-08T11:00:42.012Z,97105.64
2018-12-08T11:03:26.779Z,97109.45
2018-12-08T11:05:57.329Z,97114.52
2018-12-08T11:11:43.968Z,97104.17
2018-12-08T11:14:19.794Z,97090.07
2018-12-08T11:16:58.779Z,97089.59
2018-12-08T11:19:35.974Z,97100.05
2018-12-08T11:22:19.499Z,97113.34
2018-12-08T11:24:54.449Z,97119.73
2018-12-08T11:27:33.964Z,97109.78
2018-12-08T11:36:49.614Z,97128.70
2018-12-08T11:39:34.774Z,97131.95
2018-12-08T11:42:13.166Z,97137.36
2018-12-08T11:44:49.021Z,97140.78
2018-12-08T11:47:26.463Z,97136.77
2018-12-08T11:50:06.178Z,97148.00
2018-12-08T11:52:48.970Z,97152.77
2018-12-08T12:05:04.048Z,97158.79
2018-12-08T12:07:40.816Z,97164.24
2018-12-08T12:10:14.336Z,97157.38
2018-12-08T12:13:00.971Z,97159.77
2018-12-08T12:15:33.091Z,97160.34
2018-12-08T12:18:03.295Z,97164.09
2018-12-08T12:20:33.987Z,97162.83
2018-12-08T12:23:08.256Z,97160.34
2018-12-08T12:25:38.061Z,97164.36
2018-12-08T12:28:08.433Z,97161.73
2018-12-08T12:30:38.435Z,97167.38
2018-12-08T12:33:09.158Z,97161.26
2018-12-08T12:35:39.742Z,97162.33
2018-12-08T12:38:15.205Z,97160.97
2018-12-08T12:40:45.067Z,97170.12
2018-12-08T12:43:14.695Z,97163.17
2018-12-08T12:45:44.242Z,97173.09
2018-12-08T12:48:14.988Z,97159.78
2018-12-08T12:50:45.361Z,97169.56
2018-12-08T12:53:16.612Z,97174.78
2018-12-08T12:55:47.193Z,97182.89
2018-12-08T12:58:17.091Z,97173.97
2018-12-08T13:00:47.531Z,97177.36
2018-12-08T13:03:22.871Z,97178.34
2018-12-08T13:05:54.792Z,97181.44
2018-12-08T13:08:25.050Z,97190.94
2018-12-08T13:10:55.905Z,97185.33
2018-12-08T13:13:26.842Z,97187.51
2018-12-08T13:15:57.226Z,97188.22
2018-12-08T13:18:28.360Z,97192.27
2018-12-08T13:21:00.328Z,97196.59
2018-12-08T13:23:31.592Z,97196.69
2018-12-08T13:26:01.843Z,97195.79
2018-12-08T13:28:32.243Z,97190.71
2018-12-08T13:31:02.685Z,97192.83
2018-12-08T13:33:33.688Z,97200.80
2018-12-08T13:36:08.043Z,97193.39
2018-12-08T13:38:38.211Z,97193.08
2018-12-08T13:41:08.781Z,97190.33
2018-12-08T13:43:40.236Z,97201.14
2018-12-08T13:46:10.527Z,97205.21
2018-12-08T13:48:43.806Z,97206.69
2018-12-08T13:51:26.213Z,97206.79
2018-12-08T13:53:56.881Z,97214.19
2018-12-08T13:56:35.589Z,97205.70
2018-12-08T13:59:08.843Z,97212.22
2018-12-08T14:01:40.281Z,97213.33
2018-12-08T14:04:23.025Z,97214.52
2018-12-08T14:06:58.099Z,97214.98
2018-12-08T14:09:29.219Z,97212.52
2018-12-08T14:14:40.537Z,97226.63
2018-12-08T14:17:22.571Z,97232.98
2018-12-08T14:19:56.254Z,97236.33
2018-12-08T14:22:42.087Z,97239.44
2018-12-08T14:25:15.536Z,97237.23
2018-12-08T14:27:59.093Z,97233.42
2018-12-08T14:30:32.135Z,97232.87
2018-12-08T14:33:12.891Z,97240.34
2018-12-08T14:35:45.756Z,97246.77
2018-12-08T14:38:16.873Z,97252.32
2018-12-08T14:40:51.051Z,97254.98
2018-12-08T14:43:21.709Z,97269.82
2018-12-08T14:45:51.841Z,97272.48
2018-12-08T14:48:22.658Z,97279.74
2018-12-08T14:50:53.759Z,97284.27
2018-12-08T14:53:26.138Z,97288.48
2018-12-08T14:55:56.299Z,97292.19
2018-12-08T14:58:27.515Z,97294.70
2018-12-08T15:01:00.557Z,97304.31
2018-12-08T15:03:36.735Z,97304.58
2018-12-08T15:06:08.126Z,97305.14
2018-12-08T15:08:38.258Z,97305.67
2018-12-08T15:11:09.121Z,97301.31
2018-12-08T15:13:39.921Z,97305.02
2018-12-08T15:16:09.941Z,97311.73
2018-12-08T15:18:40.536Z,97316.00
2018-12-08T15:21:11.034Z,97318.70
2018-12-08T15:23:42.706Z,97321.45
2018-12-08T15:26:12.861Z,97325.86
2018-12-08T15:28:43.382Z,97326.53
2018-12-08T15:31:14.551Z,97323.91
2018-12-08T15:33:45.843Z,97332.23
2018-12-08T15:36:15.924Z,97330.66
2018-12-08T15:38:45.868Z,97329.92
2018-12-08T15:41:16.259Z,97335.24
2018-12-08T15:43:46.689Z,97342.28
2018-12-08T15:46:17.594Z,97338.88
2018-12-08T15:48:47.952Z,97347.87
2018-12-08T15:51:17.964Z,97349.72
2018-12-08T15:53:48.206Z,97344.41
2018-12-08T15:56:18.634Z,97341.64
2018-12-08T15:58:51.157Z,97347.62
2018-12-08T16:01:22.256Z,97349.15
2018-12-08T16:04:02.000Z,97356.30
2018-12-08T16:06:34.005Z,97360.69
2018-12-08T16:09:05.249Z,97361.85
2018-12-08T16:11:43.390Z,97365.02
2018-12-08T16:14:17.630Z,97368.41
2018-12-08T16:16:54.299Z,97368.75
2018-12-08T16:19:27.590Z,97374.65
2018-12-08T16:24:40.163Z,97388.94
2018-12-08T16:27:19.085Z,97386.34
2018-12-08T16:29:59.381Z,97383.27
2018-12-08T16:32:41.782Z,97384.88
2018-12-08T16:35:14.365Z,97376.32
2018-12-08T16:37:45.569Z,97379.79
2018-12-08T16:40:16.349Z,97384.14
2018-12-08T16:42:58.274Z,97385.90
2018-12-08T16:45:32.051Z,97389.07
2018-12-08T16:48:16.488Z,97397.08
2018-12-08T16:50:49.192Z,97399.75
2018-12-08T16:53:19.365Z,97401.77
2018-12-08T16:55:50.652Z,97403.76
2018-12-08T16:58:21.530Z,97413.67
2018-12-08T17:00:51.431Z,97414.11
2018-12-08T17:03:26.189Z,97418.02
2018-12-08T17:05:57.567Z,97423.08
2018-12-08T17:08:28.802Z,97424.04
2018-12-08T17:10:58.957Z,97423.97
2018-12-08T17:13:30.121Z,97429.77
2018-12-08T17:16:01.802Z,97439.70
2018-12-08T17:18:34.911Z,97433.28
2018-12-08T17:21:05.692Z,97431.30
2018-12-08T17:23:36.889Z,97437.65
2018-12-08T17:26:07.860Z,97434.18
2018-12-08T17:28:38.299Z,97436.55
2018-12-08T17:31:09.117Z,97445.38
2018-12-08T17:33:39.678Z,97447.81
2018-12-08T17:36:10.452Z,97444.78
2018-12-08T17:38:41.502Z,97449.03
2018-12-08T17:41:12.070Z,97454.16
2018-12-08T17:43:42.721Z,97457.48
2018-12-08T17:46:12.509Z,97458.37
2018-12-08T17:48:42.570Z,97452.61
2018-12-08T17:51:12.932Z,97461.11
2018-12-08T17:53:43.365Z,97460.41
2018-12-08T17:56:14.545Z,97461.89
2018-12-08T17:58:44.839Z,97461.75
2018-12-08T18:01:15.897Z,97470.00
2018-12-08T18:03:56.080Z,97464.58
2018-12-08T18:06:29.888Z,97472.75
2018-12-08T18:09:00.452Z,97477.03
2018-12-08T18:11:35.027Z,97480.16
2018-12-08T18:14:06.125Z,97482.77
2018-12-08T18:16:36.749Z,97491.97
2018-12-08T18:19:07.247Z,97487.70
2018-12-08T18:21:43.697Z,97477.73
2018-12-08T18:24:18.362Z,97476.91
2018-12-08T18:26:53.353Z,97480.61
2018-12-08T18:29:26.567Z,97477.28
2018-12-08T18:32:02.479Z,97485.63
2018-12-08T18:34:33.126Z,97495.02
2018-12-08T18:37:17.679Z,97495.92
2018-12-08T18:39:49.069Z,97499.30
2018-12-08T18:42:30.780Z,97500.58
2018-12-08T18:45:01.001Z,97501.12
2018-12-08T18:47:45.499Z,97498.86
2018-12-08T18:50:17.451Z,97505.95
2018-12-08T18:53:00.884Z,97508.50
2018-12-08T18:55:32.192Z,97508.83
2018-12-08T18:58:14.790Z,97506.20
2018-12-08T19:00:46.079Z,97506.30
2018-12-08T19:03:21.784Z,97511.06
2018-12-08T19:05:55.109Z,97510.61
2018-12-08T19:08:25.821Z,97511.41
2018-12-08T19:10:56.615Z,97507.86
2018-12-08T19:13:27.051Z,97507.63
2018-12-08T19:15:57.812Z,97508.63
2018-12-08T19:18:28.032Z,97517.09
2018-12-08T19:20:58.335Z,97523.29
2018-12-08T19:23:28.928Z,97521.84
2018-12-08T19:25:59.074Z,97524.07
2018-12-08T19:28:30.125Z,97528.76
2018-12-08T19:31:00.860Z,97527.52
2018-12-08T19:33:33.155Z,97529.15
2018-12-08T19:36:03.551Z,97533.02
2018-12-08T19:38:47.375Z,97532.81
2018-12-08T19:41:36.994Z,97535.48
2018-12-08T19:47:20.494Z,97536.19
2018-12-08T19:49:51.672Z,97535.23
2018-12-08T19:52:29.454Z,97532.20
2018-12-08T19:55:05.109Z,97535.00
2018-12-08T19:57:52.687Z,97530.83
2018-12-08T20:00:28.883Z,97537.16
2018-12-08T20:06:32.594Z,97527.50
2018-12-08T20:09:08.316Z,97529.91
2018-12-08T20:11:53.431Z,97532.88
2018-12-08T20:14:31.001Z,97531.03
2018-12-08T20:17:30.087Z,97532.08
2018-12-08T20:20:27.486Z,97540.50
2018-12-08T20:25:58.776Z,97535.70
2018-12-08T20:28:44.609Z,97539.92
2018-12-08T20:31:28.565Z,97549.31
2018-12-08T20:34:00.520Z,97558.07
2018-12-08T20:36:31.041Z,97564.88
2018-12-08T20:39:01.567Z,97573.00
2018-12-08T20:41:38.220Z,97567.48
2018-12-08T20:44:08.614Z,97556.16
2018-12-08T20:46:39.674Z,97551.80
2018-12-08T20:49:09.604Z,97557.59
2018-12-08T20:51:50.787Z,97558.84
2018-12-08T20:54:22.085Z,97563.06
2018-12-08T20:57:01.544Z,97561.67
2018-12-08T20:59:32.900Z,97569.72
2018-12-08T21:02:03.707Z,97572.27
2018-12-08T21:04:46.095Z,97566.03
2018-12-08T21:07:28.422Z,97563.48
2018-12-08T21:10:03.058Z,97563.13
2018-12-08T21:12:43.212Z,97566.73
2018-12-08T21:15:15.947Z,97560.40
2018-12-08T21:17:54.992Z,97568.60
2018-12-08T21:23:39.926Z,97568.20
2018-12-08T21:26:10.122Z,97565.34
2018-12-08T21:28:41.712Z,97567.56
2018-12-08T21:31:12.294Z,97559.27
2018-12-08T21:33:43.157Z,97558.14
2018-12-08T21:36:13.319Z,97561.30
2018-12-08T21:38:43.835Z,97557.44
2018-12-08T21:41:14.694Z,97557.46
2018-12-08T21:43:44.968Z,97554.14
2018-12-08T21:46:16.912Z,97546.91
2018-12-08T21:48:47.756Z,97543.52
2018-12-08T21:51:17.567Z,97542.81
2018-12-08T21:53:47.640Z,97541.13
2018-12-08T21:56:17.406Z,97539.25
2018-12-08T21:58:47.444Z,97547.06
2018-12-08T22:01:17.653Z,97549.44
2018-12-08T22:03:57.124Z,97542.81
2018-12-08T22:06:30.341Z,97544.88
2018-12-08T22:09:01.236Z,97540.33
2018-12-08T22:11:31.711Z,97550.25
2018-12-08T22:17:26.799Z,97557.80
2018-12-08T22:19:59.056Z,97553.50
2018-12-08T22:22:36.011Z,97551.45
2018-12-08T22:25:09.879Z,97551.19
2018-12-08T22:27:52.591Z,97543.27
2018-12-08T22:30:25.703Z,97543.52
2018-12-08T22:32:56.348Z,97535.99
2018-12-08T22:35:25.953Z,97539.98
2018-12-08T22:38:03.268Z,97544.92
2018-12-08T22:40:32.887Z,97558.94
2018-12-08T22:43:13.511Z,97559.45
2018-12-08T22:45:43.406Z,97561.96
2018-12-08T22:48:13.591Z,97557.88
2018-12-08T22:50:43.201Z,97564.67
2018-12-08T22:53:12.796Z,97563.54
2018-12-08T22:55:42.628Z,97568.95
2018-12-08T22:58:23.861Z,97571.26
2018-12-08T23:00:55.413Z,97568.75
2018-12-08T23:03:28.953Z,97570.16
2018-12-08T23:06:01.004Z,97573.36
2018-12-08T23:08:30.646Z,97568.86
2018-12-08T23:11:01.442Z,97562.98
2018-12-08T23:13:31.642Z,97563.17
2018-12-08T23:16:01.409Z,97558.73
2018-12-08T23:18:31.056Z,97551.47
2018-12-08T23:21:00.799Z,97545.01
2018-12-08T23:23:30.485Z,97537.83
2018-12-08T23:26:00.113Z,97540.40
2018-12-08T23:28:29.918Z,97538.30
2018-12-08T23:31:23.289Z,97538.11
2018-12-08T23:37:41.892Z,97528.91
2018-12-08T23:40:13.060Z,97524.74
2018-12-08T23:42:47.800Z,97525.31
2018-12-08T23:45:17.913Z,97522.16
2018-12-08T23:48:00.387Z,97526.18
2018-12-08T23:50:31.928Z,97524.46
2018-12-08T23:53:01.751Z,97518.12
2018-12-08T23:55:31.549Z,97523.41
2018-12-08T23:58:01.928Z,97525.27
